logo
Search for airport 
image banner adimage banner adimage banner ad
image banner ad

ESNS - Skelleftea

Located in Skelleftea, Sweden

ICAO - ESNS, IATA - SFT

Data provided by Airmate  

General information

Coordinates: N64°37'29" E21°4'37"
Elevation is 158 feet MSL.
Magnetic variation is +9.0° East
View others Airports in Västerbottens län

Operational data

Special qualification required
Current time UTC:
Current local time:
Weather
METAR: ESNS 130520Z AUTO 23008KT 9999 NCD 06/02 Q1003
TAF: TAF ESNS 122030Z 1221/1224 19008KT CAVOK
View NOTAMs / SUP AIP / TFR affecting this airport [VIEW]
Communications frequencies: [VIEW]

Runways:

RWY identifierQFULength (ft)Width (ft)SurfaceLDA (ft)
10106°8268148ASPH8268
28286°8268148ASPH8268

Airport contact information

Address: Skelleftea Sweden

Other aviation service providers

Aviation club (not for profit)

Skellefteå Aeroclub

Skellefteå Aeroclub
info@skellefteaaeroclub.com+46706982546
+46706982546

Skellefteå Motorflygklubb

Skellefteå Motorflygklubb
soren.bergmark@telia.com+4670-6442854
+4670-6442854

Satellite view of ESNS